sensor_id;sensor_type;location;lat;lon;timestamp;P1;durP1;ratioP1;P2;durP2;ratioP2
48743;SDS011;34538;48.836;9.174;2023-07-02T00:02:13;3.90;;;2.70;;
48743;SDS011;34538;48.836;9.174;2023-07-02T00:04:40;5.03;;;3.58;;
48743;SDS011;34538;48.836;9.174;2023-07-02T00:07:08;6.28;;;3.40;;
48743;SDS011;34538;48.836;9.174;2023-07-02T00:09:35;3.75;;;2.90;;
48743;SDS011;34538;48.836;9.174;2023-07-02T00:12:02;4.75;;;3.15;;
48743;SDS011;34538;48.836;9.174;2023-07-02T00:14:30;5.43;;;3.35;;
48743;SDS011;34538;48.836;9.174;2023-07-02T00:16:56;7.05;;;3.00;;
48743;SDS011;34538;48.836;9.174;2023-07-02T00:19:23;4.90;;;2.80;;
48743;SDS011;34538;48.836;9.174;2023-07-02T00:21:50;4.10;;;2.92;;
48743;SDS011;34538;48.836;9.174;2023-07-02T00:24:19;5.65;;;2.90;;
48743;SDS011;34538;48.836;9.174;2023-07-02T00:26:46;4.35;;;3.08;;
48743;SDS011;34538;48.836;9.174;2023-07-02T00:29:13;3.83;;;2.60;;
48743;SDS011;34538;48.836;9.174;2023-07-02T00:31:40;5.57;;;3.25;;
48743;SDS011;34538;48.836;9.174;2023-07-02T00:34:07;4.10;;;3.03;;
48743;SDS011;34538;48.836;9.174;2023-07-02T00:36:34;6.63;;;3.45;;
48743;SDS011;34538;48.836;9.174;2023-07-02T00:39:00;3.95;;;2.75;;
48743;SDS011;34538;48.836;9.174;2023-07-02T00:41:29;7.25;;;3.30;;
48743;SDS011;34538;48.836;9.174;2023-07-02T00:43:56;4.55;;;2.72;;
48743;SDS011;34538;48.836;9.174;2023-07-02T00:46:23;5.35;;;3.38;;
48743;SDS011;34538;48.836;9.174;2023-07-02T00:48:52;3.78;;;2.60;;
48743;SDS011;34538;48.836;9.174;2023-07-02T00:51:20;4.28;;;2.70;;
48743;SDS011;34538;48.836;9.174;2023-07-02T00:53:49;4.50;;;2.85;;
48743;SDS011;34538;48.836;9.174;2023-07-02T00:56:17;4.82;;;2.42;;
48743;SDS011;34538;48.836;9.174;2023-07-02T00:58:47;3.53;;;2.50;;
48743;SDS011;34538;48.836;9.174;2023-07-02T01:01:16;3.75;;;2.50;;
48743;SDS011;34538;48.836;9.174;2023-07-02T01:03:51;5.43;;;2.30;;
48743;SDS011;34538;48.836;9.174;2023-07-02T01:06:20;4.40;;;2.45;;
48743;SDS011;34538;48.836;9.174;2023-07-02T01:08:51;4.30;;;2.35;;
48743;SDS011;34538;48.836;9.174;2023-07-02T01:11:20;3.70;;;2.50;;
48743;SDS011;34538;48.836;9.174;2023-07-02T01:13:51;5.95;;;2.53;;
48743;SDS011;34538;48.836;9.174;2023-07-02T01:16:21;4.72;;;2.58;;
48743;SDS011;34538;48.836;9.174;2023-07-02T01:18:48;4.22;;;2.70;;
48743;SDS011;34538;48.836;9.174;2023-07-02T01:21:20;4.85;;;2.60;;
48743;SDS011;34538;48.836;9.174;2023-07-02T01:23:48;4.30;;;2.78;;
48743;SDS011;34538;48.836;9.174;2023-07-02T01:26:15;4.00;;;2.72;;
48743;SDS011;34538;48.836;9.174;2023-07-02T01:28:42;4.15;;;2.40;;
48743;SDS011;34538;48.836;9.174;2023-07-02T01:31:10;5.05;;;2.60;;
48743;SDS011;34538;48.836;9.174;2023-07-02T01:33:36;6.28;;;2.67;;
48743;SDS011;34538;48.836;9.174;2023-07-02T01:36:04;3.60;;;2.33;;
48743;SDS011;34538;48.836;9.174;2023-07-02T01:38:32;4.22;;;2.45;;
48743;SDS011;34538;48.836;9.174;2023-07-02T01:40:59;3.28;;;2.35;;
48743;SDS011;34538;48.836;9.174;2023-07-02T01:43:26;3.58;;;2.47;;
48743;SDS011;34538;48.836;9.174;2023-07-02T01:45:53;3.40;;;2.50;;
48743;SDS011;34538;48.836;9.174;2023-07-02T01:48:21;4.28;;;2.90;;
48743;SDS011;34538;48.836;9.174;2023-07-02T01:50:47;4.60;;;2.83;;
48743;SDS011;34538;48.836;9.174;2023-07-02T01:53:14;4.13;;;2.15;;
48743;SDS011;34538;48.836;9.174;2023-07-02T01:55:42;3.60;;;2.60;;
48743;SDS011;34538;48.836;9.174;2023-07-02T01:58:09;5.22;;;2.83;;
48743;SDS011;34538;48.836;9.174;2023-07-02T02:00:36;4.43;;;2.63;;
48743;SDS011;34538;48.836;9.174;2023-07-02T02:03:04;4.78;;;2.80;;
48743;SDS011;34538;48.836;9.174;2023-07-02T02:05:31;4.25;;;2.42;;
48743;SDS011;34538;48.836;9.174;2023-07-02T02:07:58;4.80;;;2.40;;
48743;SDS011;34538;48.836;9.174;2023-07-02T02:10:25;4.47;;;2.67;;
48743;SDS011;34538;48.836;9.174;2023-07-02T02:12:53;4.60;;;2.40;;
48743;SDS011;34538;48.836;9.174;2023-07-02T02:15:19;3.40;;;2.45;;
48743;SDS011;34538;48.836;9.174;2023-07-02T02:17:46;7.97;;;2.50;;
48743;SDS011;34538;48.836;9.174;2023-07-02T02:20:13;4.90;;;2.92;;
48743;SDS011;34538;48.836;9.174;2023-07-02T02:22:40;2.95;;;2.45;;
48743;SDS011;34538;48.836;9.174;2023-07-02T02:25:07;4.28;;;2.67;;
48743;SDS011;34538;48.836;9.174;2023-07-02T02:27:34;7.72;;;2.90;;
48743;SDS011;34538;48.836;9.174;2023-07-02T02:30:03;5.90;;;2.92;;
48743;SDS011;34538;48.836;9.174;2023-07-02T02:32:33;6.38;;;3.15;;
48743;SDS011;34538;48.836;9.174;2023-07-02T02:35:00;4.88;;;2.85;;
48743;SDS011;34538;48.836;9.174;2023-07-02T02:37:28;4.88;;;2.83;;
48743;SDS011;34538;48.836;9.174;2023-07-02T02:39:56;4.22;;;2.63;;
48743;SDS011;34538;48.836;9.174;2023-07-02T02:42:25;7.10;;;3.17;;
48743;SDS011;34538;48.836;9.174;2023-07-02T02:44:52;4.38;;;2.80;;
48743;SDS011;34538;48.836;9.174;2023-07-02T02:47:20;3.90;;;2.63;;
48743;SDS011;34538;48.836;9.174;2023-07-02T02:49:47;5.25;;;2.53;;
48743;SDS011;34538;48.836;9.174;2023-07-02T02:52:13;4.63;;;2.70;;
48743;SDS011;34538;48.836;9.174;2023-07-02T02:54:40;5.30;;;2.90;;
48743;SDS011;34538;48.836;9.174;2023-07-02T02:57:07;3.63;;;2.67;;
48743;SDS011;34538;48.836;9.174;2023-07-02T02:59:34;3.70;;;2.65;;
48743;SDS011;34538;48.836;9.174;2023-07-02T03:02:01;3.65;;;2.40;;
48743;SDS011;34538;48.836;9.174;2023-07-02T03:04:30;4.18;;;2.58;;
48743;SDS011;34538;48.836;9.174;2023-07-02T03:06:57;4.68;;;2.47;;
48743;SDS011;34538;48.836;9.174;2023-07-02T03:09:23;4.88;;;2.60;;
48743;SDS011;34538;48.836;9.174;2023-07-02T03:11:50;3.33;;;2.28;;
48743;SDS011;34538;48.836;9.174;2023-07-02T03:14:17;4.97;;;2.20;;
48743;SDS011;34538;48.836;9.174;2023-07-02T03:16:44;3.95;;;2.42;;
48743;SDS011;34538;48.836;9.174;2023-07-02T03:19:11;4.22;;;2.30;;
48743;SDS011;34538;48.836;9.174;2023-07-02T03:21:41;5.47;;;2.85;;
48743;SDS011;34538;48.836;9.174;2023-07-02T03:24:08;4.05;;;2.53;;
48743;SDS011;34538;48.836;9.174;2023-07-02T03:26:37;4.47;;;2.75;;
48743;SDS011;34538;48.836;9.174;2023-07-02T03:29:03;4.80;;;3.03;;
48743;SDS011;34538;48.836;9.174;2023-07-02T03:31:30;6.43;;;2.75;;
48743;SDS011;34538;48.836;9.174;2023-07-02T03:33:57;8.00;;;3.22;;
48743;SDS011;34538;48.836;9.174;2023-07-02T03:36:24;4.28;;;3.00;;
48743;SDS011;34538;48.836;9.174;2023-07-02T03:38:52;4.93;;;3.10;;
48743;SDS011;34538;48.836;9.174;2023-07-02T03:41:19;7.90;;;3.75;;
48743;SDS011;34538;48.836;9.174;2023-07-02T03:43:46;7.28;;;3.22;;
48743;SDS011;34538;48.836;9.174;2023-07-02T03:46:13;7.93;;;3.40;;
48743;SDS011;34538;48.836;9.174;2023-07-02T03:48:40;6.85;;;3.10;;
48743;SDS011;34538;48.836;9.174;2023-07-02T03:51:07;5.93;;;3.20;;
48743;SDS011;34538;48.836;9.174;2023-07-02T03:53:34;7.35;;;3.22;;
48743;SDS011;34538;48.836;9.174;2023-07-02T03:56:02;6.28;;;3.03;;
48743;SDS011;34538;48.836;9.174;2023-07-02T03:58:29;6.38;;;3.05;;
48743;SDS011;34538;48.836;9.174;2023-07-02T04:00:56;6.75;;;3.08;;
48743;SDS011;34538;48.836;9.174;2023-07-02T04:03:23;7.30;;;3.13;;
48743;SDS011;34538;48.836;9.174;2023-07-02T04:05:49;7.38;;;2.90;;
48743;SDS011;34538;48.836;9.174;2023-07-02T04:08:16;5.03;;;3.28;;
48743;SDS011;34538;48.836;9.174;2023-07-02T04:10:46;7.85;;;3.50;;
48743;SDS011;34538;48.836;9.174;2023-07-02T04:13:14;8.05;;;3.53;;
48743;SDS011;34538;48.836;9.174;2023-07-02T04:15:41;7.60;;;3.40;;
48743;SDS011;34538;48.836;9.174;2023-07-02T04:18:08;4.88;;;2.88;;
48743;SDS011;34538;48.836;9.174;2023-07-02T04:20:34;7.72;;;3.50;;
48743;SDS011;34538;48.836;9.174;2023-07-02T04:23:03;6.85;;;3.03;;
48743;SDS011;34538;48.836;9.174;2023-07-02T04:25:30;10.80;;;3.78;;
48743;SDS011;34538;48.836;9.174;2023-07-02T04:27:57;7.78;;;3.55;;
48743;SDS011;34538;48.836;9.174;2023-07-02T04:30:25;10.77;;;3.30;;
48743;SDS011;34538;48.836;9.174;2023-07-02T04:32:52;7.15;;;3.38;;
48743;SDS011;34538;48.836;9.174;2023-07-02T04:35:19;7.13;;;3.58;;
48743;SDS011;34538;48.836;9.174;2023-07-02T04:37:46;8.73;;;3.30;;
48743;SDS011;34538;48.836;9.174;2023-07-02T04:40:12;6.38;;;3.33;;
48743;SDS011;34538;48.836;9.174;2023-07-02T04:42:40;7.85;;;3.10;;
48743;SDS011;34538;48.836;9.174;2023-07-02T04:45:12;6.50;;;3.35;;
48743;SDS011;34538;48.836;9.174;2023-07-02T04:47:43;7.30;;;3.60;;
48743;SDS011;34538;48.836;9.174;2023-07-02T04:50:10;6.10;;;3.15;;
48743;SDS011;34538;48.836;9.174;2023-07-02T04:52:37;6.82;;;2.92;;
48743;SDS011;34538;48.836;9.174;2023-07-02T04:55:04;8.60;;;3.25;;
48743;SDS011;34538;48.836;9.174;2023-07-02T04:57:32;6.57;;;2.85;;
48743;SDS011;34538;48.836;9.174;2023-07-02T04:59:59;4.70;;;2.40;;
48743;SDS011;34538;48.836;9.174;2023-07-02T05:02:26;5.40;;;2.63;;
48743;SDS011;34538;48.836;9.174;2023-07-02T05:04:54;7.38;;;3.13;;
48743;SDS011;34538;48.836;9.174;2023-07-02T05:07:21;6.13;;;2.67;;
48743;SDS011;34538;48.836;9.174;2023-07-02T05:09:47;9.55;;;2.63;;
48743;SDS011;34538;48.836;9.174;2023-07-02T05:12:17;5.65;;;2.80;;
48743;SDS011;34538;48.836;9.174;2023-07-02T05:14:43;8.30;;;3.13;;
48743;SDS011;34538;48.836;9.174;2023-07-02T05:17:11;6.63;;;2.72;;
48743;SDS011;34538;48.836;9.174;2023-07-02T05:19:39;6.68;;;2.65;;
48743;SDS011;34538;48.836;9.174;2023-07-02T05:22:08;6.68;;;2.58;;
48743;SDS011;34538;48.836;9.174;2023-07-02T05:24:35;5.75;;;2.95;;
48743;SDS011;34538;48.836;9.174;2023-07-02T05:27:02;4.72;;;2.53;;
48743;SDS011;34538;48.836;9.174;2023-07-02T05:29:29;4.82;;;2.88;;
48743;SDS011;34538;48.836;9.174;2023-07-02T05:31:56;5.90;;;2.58;;
48743;SDS011;34538;48.836;9.174;2023-07-02T05:34:23;9.52;;;2.58;;
48743;SDS011;34538;48.836;9.174;2023-07-02T05:36:50;5.35;;;2.50;;
48743;SDS011;34538;48.836;9.174;2023-07-02T05:39:18;4.03;;;2.50;;
48743;SDS011;34538;48.836;9.174;2023-07-02T05:41:46;6.50;;;2.88;;
48743;SDS011;34538;48.836;9.174;2023-07-02T05:44:13;5.38;;;2.30;;
48743;SDS011;34538;48.836;9.174;2023-07-02T05:46:40;4.82;;;3.03;;
48743;SDS011;34538;48.836;9.174;2023-07-02T05:49:07;5.03;;;2.63;;
48743;SDS011;34538;48.836;9.174;2023-07-02T05:51:34;6.32;;;2.60;;
48743;SDS011;34538;48.836;9.174;2023-07-02T05:54:01;8.73;;;3.30;;
48743;SDS011;34538;48.836;9.174;2023-07-02T05:56:29;5.90;;;3.10;;
48743;SDS011;34538;48.836;9.174;2023-07-02T05:58:55;6.50;;;3.35;;
48743;SDS011;34538;48.836;9.174;2023-07-02T06:01:22;6.05;;;3.08;;
48743;SDS011;34538;48.836;9.174;2023-07-02T06:03:49;6.28;;;3.00;;
48743;SDS011;34538;48.836;9.174;2023-07-02T06:06:16;9.90;;;3.33;;
48743;SDS011;34538;48.836;9.174;2023-07-02T06:08:43;8.40;;;3.88;;
48743;SDS011;34538;48.836;9.174;2023-07-02T06:11:10;11.32;;;4.15;;
48743;SDS011;34538;48.836;9.174;2023-07-02T06:13:38;8.35;;;4.03;;
48743;SDS011;34538;48.836;9.174;2023-07-02T06:16:05;10.13;;;4.22;;
48743;SDS011;34538;48.836;9.174;2023-07-02T06:18:32;7.75;;;3.95;;
48743;SDS011;34538;48.836;9.174;2023-07-02T06:20:59;7.95;;;3.67;;
48743;SDS011;34538;48.836;9.174;2023-07-02T06:23:26;7.88;;;3.95;;
48743;SDS011;34538;48.836;9.174;2023-07-02T06:25:53;10.93;;;4.15;;
48743;SDS011;34538;48.836;9.174;2023-07-02T06:28:24;8.37;;;4.57;;
48743;SDS011;34538;48.836;9.174;2023-07-02T06:30:52;9.10;;;4.15;;
48743;SDS011;34538;48.836;9.174;2023-07-02T06:33:19;10.60;;;4.82;;
48743;SDS011;34538;48.836;9.174;2023-07-02T06:35:46;9.43;;;4.88;;
48743;SDS011;34538;48.836;9.174;2023-07-02T06:38:13;10.38;;;5.57;;
48743;SDS011;34538;48.836;9.174;2023-07-02T06:40:40;11.43;;;5.32;;
48743;SDS011;34538;48.836;9.174;2023-07-02T06:43:07;10.52;;;4.30;;
48743;SDS011;34538;48.836;9.174;2023-07-02T06:45:34;10.40;;;4.32;;
48743;SDS011;34538;48.836;9.174;2023-07-02T06:48:03;9.30;;;4.18;;
48743;SDS011;34538;48.836;9.174;2023-07-02T06:50:30;9.63;;;4.47;;
48743;SDS011;34538;48.836;9.174;2023-07-02T06:52:57;9.45;;;4.50;;
48743;SDS011;34538;48.836;9.174;2023-07-02T06:55:23;14.02;;;5.25;;
48743;SDS011;34538;48.836;9.174;2023-07-02T06:57:50;9.82;;;4.65;;
48743;SDS011;34538;48.836;9.174;2023-07-02T07:00:18;9.27;;;4.95;;
48743;SDS011;34538;48.836;9.174;2023-07-02T07:02:45;12.35;;;4.97;;
48743;SDS011;34538;48.836;9.174;2023-07-02T07:05:13;10.40;;;4.75;;
48743;SDS011;34538;48.836;9.174;2023-07-02T07:07:40;10.30;;;4.72;;
48743;SDS011;34538;48.836;9.174;2023-07-02T07:10:07;11.00;;;4.93;;
48743;SDS011;34538;48.836;9.174;2023-07-02T07:12:34;10.05;;;4.47;;
48743;SDS011;34538;48.836;9.174;2023-07-02T07:15:02;13.57;;;5.55;;
48743;SDS011;34538;48.836;9.174;2023-07-02T07:17:29;10.15;;;5.28;;
48743;SDS011;34538;48.836;9.174;2023-07-02T07:19:56;15.32;;;5.97;;
48743;SDS011;34538;48.836;9.174;2023-07-02T07:22:24;11.15;;;5.57;;
48743;SDS011;34538;48.836;9.174;2023-07-02T07:24:51;12.90;;;6.45;;
48743;SDS011;34538;48.836;9.174;2023-07-02T07:27:18;12.90;;;6.22;;
48743;SDS011;34538;48.836;9.174;2023-07-02T07:29:44;15.02;;;7.20;;
48743;SDS011;34538;48.836;9.174;2023-07-02T07:32:11;15.95;;;6.25;;
48743;SDS011;34538;48.836;9.174;2023-07-02T07:34:38;13.15;;;6.75;;
48743;SDS011;34538;48.836;9.174;2023-07-02T07:37:05;15.32;;;7.32;;
48743;SDS011;34538;48.836;9.174;2023-07-02T07:39:33;15.15;;;7.82;;
48743;SDS011;34538;48.836;9.174;2023-07-02T07:42:00;14.32;;;6.57;;
48743;SDS011;34538;48.836;9.174;2023-07-02T07:44:27;15.23;;;7.05;;
48743;SDS011;34538;48.836;9.174;2023-07-02T07:46:54;15.55;;;7.15;;
48743;SDS011;34538;48.836;9.174;2023-07-02T07:49:22;17.05;;;7.22;;
48743;SDS011;34538;48.836;9.174;2023-07-02T07:51:49;17.50;;;8.95;;
48743;SDS011;34538;48.836;9.174;2023-07-02T07:54:17;15.43;;;7.78;;
48743;SDS011;34538;48.836;9.174;2023-07-02T07:56:45;14.02;;;7.30;;
48743;SDS011;34538;48.836;9.174;2023-07-02T07:59:12;15.55;;;7.90;;
48743;SDS011;34538;48.836;9.174;2023-07-02T08:01:40;15.73;;;7.63;;
48743;SDS011;34538;48.836;9.174;2023-07-02T08:04:07;16.17;;;8.23;;
48743;SDS011;34538;48.836;9.174;2023-07-02T08:06:34;16.70;;;8.13;;
48743;SDS011;34538;48.836;9.174;2023-07-02T08:09:01;17.80;;;8.27;;
48743;SDS011;34538;48.836;9.174;2023-07-02T08:11:29;15.30;;;7.32;;
48743;SDS011;34538;48.836;9.174;2023-07-02T08:13:57;18.95;;;8.80;;
48743;SDS011;34538;48.836;9.174;2023-07-02T08:16:24;15.80;;;8.52;;
48743;SDS011;34538;48.836;9.174;2023-07-02T08:18:51;14.07;;;8.18;;
48743;SDS011;34538;48.836;9.174;2023-07-02T08:21:18;16.30;;;7.93;;
48743;SDS011;34538;48.836;9.174;2023-07-02T08:23:45;20.05;;;8.07;;
48743;SDS011;34538;48.836;9.174;2023-07-02T08:26:12;17.58;;;8.40;;
48743;SDS011;34538;48.836;9.174;2023-07-02T08:28:39;17.10;;;8.52;;
48743;SDS011;34538;48.836;9.174;2023-07-02T08:31:07;17.92;;;8.45;;
48743;SDS011;34538;48.836;9.174;2023-07-02T08:33:34;22.35;;;8.45;;
48743;SDS011;34538;48.836;9.174;2023-07-02T08:36:01;16.58;;;7.88;;
48743;SDS011;34538;48.836;9.174;2023-07-02T08:38:28;18.10;;;9.02;;
48743;SDS011;34538;48.836;9.174;2023-07-02T08:40:55;17.63;;;8.32;;
48743;SDS011;34538;48.836;9.174;2023-07-02T08:43:23;17.00;;;8.57;;
48743;SDS011;34538;48.836;9.174;2023-07-02T08:45:52;17.23;;;8.00;;
48743;SDS011;34538;48.836;9.174;2023-07-02T08:48:21;18.58;;;8.35;;
48743;SDS011;34538;48.836;9.174;2023-07-02T08:50:49;16.65;;;8.15;;
48743;SDS011;34538;48.836;9.174;2023-07-02T08:53:16;17.65;;;8.68;;
48743;SDS011;34538;48.836;9.174;2023-07-02T08:55:43;14.85;;;8.45;;
48743;SDS011;34538;48.836;9.174;2023-07-02T08:58:10;16.55;;;8.35;;
48743;SDS011;34538;48.836;9.174;2023-07-02T09:00:37;14.85;;;7.35;;
48743;SDS011;34538;48.836;9.174;2023-07-02T09:03:11;14.82;;;8.27;;
48743;SDS011;34538;48.836;9.174;2023-07-02T09:05:48;17.50;;;7.97;;
48743;SDS011;34538;48.836;9.174;2023-07-02T09:08:22;17.98;;;7.97;;
48743;SDS011;34538;48.836;9.174;2023-07-02T09:10:49;16.02;;;7.55;;
48743;SDS011;34538;48.836;9.174;2023-07-02T09:13:16;14.73;;;7.50;;
48743;SDS011;34538;48.836;9.174;2023-07-02T09:15:43;15.55;;;8.25;;
48743;SDS011;34538;48.836;9.174;2023-07-02T09:18:14;16.65;;;8.40;;
48743;SDS011;34538;48.836;9.174;2023-07-02T09:20:44;14.38;;;7.97;;
48743;SDS011;34538;48.836;9.174;2023-07-02T09:23:13;18.05;;;8.73;;
48743;SDS011;34538;48.836;9.174;2023-07-02T09:25:40;15.00;;;7.97;;
48743;SDS011;34538;48.836;9.174;2023-07-02T09:28:14;17.42;;;8.52;;
48743;SDS011;34538;48.836;9.174;2023-07-02T09:30:48;16.42;;;8.45;;
48743;SDS011;34538;48.836;9.174;2023-07-02T09:33:16;15.55;;;7.68;;
48743;SDS011;34538;48.836;9.174;2023-07-02T09:35:43;16.70;;;8.73;;
48743;SDS011;34538;48.836;9.174;2023-07-02T09:38:10;15.63;;;8.27;;
48743;SDS011;34538;48.836;9.174;2023-07-02T09:40:44;15.13;;;7.15;;
48743;SDS011;34538;48.836;9.174;2023-07-02T09:43:13;15.38;;;7.53;;
48743;SDS011;34538;48.836;9.174;2023-07-02T09:45:41;19.00;;;8.18;;
48743;SDS011;34538;48.836;9.174;2023-07-02T09:48:10;17.70;;;8.55;;
48743;SDS011;34538;48.836;9.174;2023-07-02T09:50:39;13.95;;;7.43;;
48743;SDS011;34538;48.836;9.174;2023-07-02T09:53:07;15.45;;;7.63;;
48743;SDS011;34538;48.836;9.174;2023-07-02T09:55:35;20.20;;;8.50;;
48743;SDS011;34538;48.836;9.174;2023-07-02T09:58:02;17.73;;;9.02;;
48743;SDS011;34538;48.836;9.174;2023-07-02T10:00:29;15.65;;;8.52;;
48743;SDS011;34538;48.836;9.174;2023-07-02T10:02:57;15.60;;;8.52;;
48743;SDS011;34538;48.836;9.174;2023-07-02T10:05:25;19.58;;;8.70;;
48743;SDS011;34538;48.836;9.174;2023-07-02T10:07:53;20.10;;;9.30;;
48743;SDS011;34538;48.836;9.174;2023-07-02T10:10:27;14.63;;;8.63;;
48743;SDS011;34538;48.836;9.174;2023-07-02T10:12:56;16.55;;;8.07;;
48743;SDS011;34538;48.836;9.174;2023-07-02T10:15:24;35.13;;;13.68;;
48743;SDS011;34538;48.836;9.174;2023-07-02T10:17:55;25.90;;;10.40;;
48743;SDS011;34538;48.836;9.174;2023-07-02T10:20:32;16.73;;;8.82;;
48743;SDS011;34538;48.836;9.174;2023-07-02T10:23:01;15.80;;;8.27;;
48743;SDS011;34538;48.836;9.174;2023-07-02T10:25:29;20.63;;;9.95;;
48743;SDS011;34538;48.836;9.174;2023-07-02T10:27:58;16.10;;;8.52;;
48743;SDS011;34538;48.836;9.174;2023-07-02T10:30:33;16.63;;;8.38;;
48743;SDS011;34538;48.836;9.174;2023-07-02T10:33:07;14.35;;;7.75;;
48743;SDS011;34538;48.836;9.174;2023-07-02T10:35:35;15.55;;;8.52;;
48743;SDS011;34538;48.836;9.174;2023-07-02T10:38:03;15.82;;;8.55;;
48743;SDS011;34538;48.836;9.174;2023-07-02T10:40:31;18.23;;;8.32;;
48743;SDS011;34538;48.836;9.174;2023-07-02T10:43:00;15.18;;;8.05;;
48743;SDS011;34538;48.836;9.174;2023-07-02T10:45:32;14.43;;;8.15;;
48743;SDS011;34538;48.836;9.174;2023-07-02T10:48:01;16.13;;;8.25;;
48743;SDS011;34538;48.836;9.174;2023-07-02T10:50:29;16.05;;;9.20;;
48743;SDS011;34538;48.836;9.174;2023-07-02T10:52:57;16.15;;;9.07;;
48743;SDS011;34538;48.836;9.174;2023-07-02T10:55:25;18.70;;;9.75;;
48743;SDS011;34538;48.836;9.174;2023-07-02T10:58:03;18.38;;;9.27;;
48743;SDS011;34538;48.836;9.174;2023-07-02T11:00:31;18.30;;;8.70;;
48743;SDS011;34538;48.836;9.174;2023-07-02T11:02:59;17.63;;;8.82;;
48743;SDS011;34538;48.836;9.174;2023-07-02T11:05:26;16.90;;;9.10;;
48743;SDS011;34538;48.836;9.174;2023-07-02T11:07:53;16.42;;;8.60;;
48743;SDS011;34538;48.836;9.174;2023-07-02T11:10:22;15.82;;;7.75;;
48743;SDS011;34538;48.836;9.174;2023-07-02T11:12:51;16.55;;;8.25;;
48743;SDS011;34538;48.836;9.174;2023-07-02T11:15:19;16.10;;;8.20;;
48743;SDS011;34538;48.836;9.174;2023-07-02T11:17:47;15.25;;;8.25;;
48743;SDS011;34538;48.836;9.174;2023-07-02T11:20:14;15.63;;;8.07;;
48743;SDS011;34538;48.836;9.174;2023-07-02T11:22:41;15.18;;;8.00;;
48743;SDS011;34538;48.836;9.174;2023-07-02T11:25:11;15.07;;;8.52;;
48743;SDS011;34538;48.836;9.174;2023-07-02T11:27:39;15.85;;;8.82;;
48743;SDS011;34538;48.836;9.174;2023-07-02T11:30:07;16.35;;;8.88;;
48743;SDS011;34538;48.836;9.174;2023-07-02T11:32:46;15.02;;;8.60;;
48743;SDS011;34538;48.836;9.174;2023-07-02T11:35:15;17.58;;;9.18;;
48743;SDS011;34538;48.836;9.174;2023-07-02T11:37:42;16.73;;;8.20;;
48743;SDS011;34538;48.836;9.174;2023-07-02T11:40:10;14.45;;;8.10;;
48743;SDS011;34538;48.836;9.174;2023-07-02T11:42:38;16.88;;;8.63;;
48743;SDS011;34538;48.836;9.174;2023-07-02T11:45:05;17.15;;;8.65;;
48743;SDS011;34538;48.836;9.174;2023-07-02T11:47:33;15.93;;;8.65;;
48743;SDS011;34538;48.836;9.174;2023-07-02T11:50:01;15.02;;;8.40;;
48743;SDS011;34538;48.836;9.174;2023-07-02T11:52:29;16.45;;;8.32;;
48743;SDS011;34538;48.836;9.174;2023-07-02T11:54:56;15.73;;;8.23;;
48743;SDS011;34538;48.836;9.174;2023-07-02T11:57:22;17.25;;;8.38;;
48743;SDS011;34538;48.836;9.174;2023-07-02T11:59:49;18.50;;;9.20;;
48743;SDS011;34538;48.836;9.174;2023-07-02T12:02:17;18.10;;;9.60;;
48743;SDS011;34538;48.836;9.174;2023-07-02T12:04:44;17.15;;;8.93;;
48743;SDS011;34538;48.836;9.174;2023-07-02T12:07:13;16.40;;;8.73;;
48743;SDS011;34538;48.836;9.174;2023-07-02T12:09:40;15.27;;;8.73;;
48743;SDS011;34538;48.836;9.174;2023-07-02T12:12:07;17.30;;;8.77;;
48743;SDS011;34538;48.836;9.174;2023-07-02T12:14:34;14.25;;;8.30;;
48743;SDS011;34538;48.836;9.174;2023-07-02T12:17:02;15.90;;;8.63;;
48743;SDS011;34538;48.836;9.174;2023-07-02T12:19:30;16.85;;;8.68;;
48743;SDS011;34538;48.836;9.174;2023-07-02T12:21:56;16.35;;;8.55;;
48743;SDS011;34538;48.836;9.174;2023-07-02T12:24:25;17.73;;;9.23;;
48743;SDS011;34538;48.836;9.174;2023-07-02T12:26:52;15.82;;;8.88;;
48743;SDS011;34538;48.836;9.174;2023-07-02T12:29:19;16.80;;;8.77;;
48743;SDS011;34538;48.836;9.174;2023-07-02T12:31:46;17.45;;;9.60;;
48743;SDS011;34538;48.836;9.174;2023-07-02T12:34:13;16.35;;;9.25;;
48743;SDS011;34538;48.836;9.174;2023-07-02T12:36:40;17.60;;;9.55;;
48743;SDS011;34538;48.836;9.174;2023-07-02T12:39:07;15.18;;;9.60;;
48743;SDS011;34538;48.836;9.174;2023-07-02T12:41:35;17.27;;;8.95;;
48743;SDS011;34538;48.836;9.174;2023-07-02T12:44:02;14.60;;;8.40;;
48743;SDS011;34538;48.836;9.174;2023-07-02T12:46:29;16.63;;;9.27;;
48743;SDS011;34538;48.836;9.174;2023-07-02T12:48:56;16.73;;;8.55;;
48743;SDS011;34538;48.836;9.174;2023-07-02T12:51:23;14.57;;;8.32;;
48743;SDS011;34538;48.836;9.174;2023-07-02T12:53:50;16.40;;;8.75;;
48743;SDS011;34538;48.836;9.174;2023-07-02T12:56:17;15.35;;;8.48;;
48743;SDS011;34538;48.836;9.174;2023-07-02T12:58:45;16.45;;;8.95;;
48743;SDS011;34538;48.836;9.174;2023-07-02T13:01:12;16.83;;;9.20;;
48743;SDS011;34538;48.836;9.174;2023-07-02T13:03:44;18.02;;;9.18;;
48743;SDS011;34538;48.836;9.174;2023-07-02T13:06:12;19.92;;;10.40;;
48743;SDS011;34538;48.836;9.174;2023-07-02T13:08:39;14.93;;;8.65;;
48743;SDS011;34538;48.836;9.174;2023-07-02T13:11:06;15.73;;;8.77;;
48743;SDS011;34538;48.836;9.174;2023-07-02T13:13:34;15.80;;;9.18;;
48743;SDS011;34538;48.836;9.174;2023-07-02T13:16:03;14.50;;;8.57;;
48743;SDS011;34538;48.836;9.174;2023-07-02T13:18:30;16.90;;;8.40;;
48743;SDS011;34538;48.836;9.174;2023-07-02T13:20:57;15.90;;;8.60;;
48743;SDS011;34538;48.836;9.174;2023-07-02T13:23:25;17.05;;;8.52;;
48743;SDS011;34538;48.836;9.174;2023-07-02T13:25:52;13.38;;;8.18;;
48743;SDS011;34538;48.836;9.174;2023-07-02T13:28:19;18.27;;;8.65;;
48743;SDS011;34538;48.836;9.174;2023-07-02T13:30:47;16.98;;;9.43;;
48743;SDS011;34538;48.836;9.174;2023-07-02T13:33:15;16.60;;;8.95;;
48743;SDS011;34538;48.836;9.174;2023-07-02T13:35:42;18.25;;;8.15;;
48743;SDS011;34538;48.836;9.174;2023-07-02T13:38:10;17.23;;;8.55;;
48743;SDS011;34538;48.836;9.174;2023-07-02T13:40:38;15.13;;;8.55;;
48743;SDS011;34538;48.836;9.174;2023-07-02T13:43:04;17.65;;;9.90;;
48743;SDS011;34538;48.836;9.174;2023-07-02T13:45:31;17.38;;;8.88;;
48743;SDS011;34538;48.836;9.174;2023-07-02T13:47:58;14.77;;;9.10;;
48743;SDS011;34538;48.836;9.174;2023-07-02T13:50:29;14.40;;;8.30;;
48743;SDS011;34538;48.836;9.174;2023-07-02T13:52:56;17.05;;;9.35;;
48743;SDS011;34538;48.836;9.174;2023-07-02T13:55:23;17.45;;;9.10;;
48743;SDS011;34538;48.836;9.174;2023-07-02T13:57:53;17.08;;;9.43;;
48743;SDS011;34538;48.836;9.174;2023-07-02T14:00:22;14.05;;;8.07;;
48743;SDS011;34538;48.836;9.174;2023-07-02T14:02:49;15.85;;;9.00;;
48743;SDS011;34538;48.836;9.174;2023-07-02T14:05:16;15.88;;;10.00;;
48743;SDS011;34538;48.836;9.174;2023-07-02T14:07:44;17.38;;;9.52;;
48743;SDS011;34538;48.836;9.174;2023-07-02T14:10:11;16.77;;;9.07;;
48743;SDS011;34538;48.836;9.174;2023-07-02T14:12:38;15.45;;;9.48;;
48743;SDS011;34538;48.836;9.174;2023-07-02T14:15:06;16.35;;;9.10;;
48743;SDS011;34538;48.836;9.174;2023-07-02T14:17:35;18.85;;;9.43;;
48743;SDS011;34538;48.836;9.174;2023-07-02T14:20:02;16.40;;;8.60;;
48743;SDS011;34538;48.836;9.174;2023-07-02T14:22:31;16.63;;;9.18;;
48743;SDS011;34538;48.836;9.174;2023-07-02T14:24:58;15.18;;;8.93;;
48743;SDS011;34538;48.836;9.174;2023-07-02T14:27:25;12.75;;;8.60;;
48743;SDS011;34538;48.836;9.174;2023-07-02T14:29:52;16.25;;;8.38;;
48743;SDS011;34538;48.836;9.174;2023-07-02T14:32:19;16.17;;;8.85;;
48743;SDS011;34538;48.836;9.174;2023-07-02T14:34:47;14.50;;;8.55;;
48743;SDS011;34538;48.836;9.174;2023-07-02T14:37:14;14.20;;;8.40;;
48743;SDS011;34538;48.836;9.174;2023-07-02T14:39:41;13.75;;;8.48;;
48743;SDS011;34538;48.836;9.174;2023-07-02T14:42:08;16.90;;;8.48;;
48743;SDS011;34538;48.836;9.174;2023-07-02T14:44:35;17.40;;;8.68;;